Date,TemperatureHighF,TemperatureAvgF,TemperatureLowF,DewpointHighF,DewpointAvgF,DewpointLowF,HumidityHigh,HumidityAvg,HumidityLow,PressureMaxIn,PressureMinIn,WindSpeedMaxMPH,WindSpeedAvgMPH,GustSpeedMaxMPH,PrecipitationSumIn
2013-1-1,9.5,-2.9,-4.4,2.3,-8.3,-9.5,78,77,70,31.89,31.78,7,2,7,0.00
2013-1-6,31.8,15.9,2.7,15.6,8.4,-0.8,89,73,49,31.88,23.64,10,2,10,0.08
2013-1-7,43.7,23.3,5.0,27.5,17.3,2.0,92,79,51,31.89,23.65,16,4,16,0.00
2013-1-8,39.6,22.8,3.9,30.5,18.1,1.4,94,83,61,31.88,25.34,17,4,17,0.00
2013-1-9,38.5,32.9,26.8,27.4,24.4,22.0,89,71,54,31.89,27.01,14,7,14,0.00
2013-1-10,41.0,29.0,13.6,33.4,20.4,10.8,97,73,38,31.88,24.26,14,4,14,0.08
2013-1-11,39.7,36.4,34.0,39.5,34.9,3.8,99,95,24,31.89,27.62,13,7,13,0.02
2013-1-12,39.7,20.4,7.9,39.5,13.2,-16.9,99,75,24,31.88,27.55,15,6,15,0.02
2013-1-13,40.8,7.9,3.0,18.3,1.1,-25.7,87,75,24,31.88,26.54,12,4,12,0.02
2013-1-14,40.8,5.1,-1.7,18.3,-1.3,-29.3,86,77,24,31.89,24.10,11,3,11,0.00
2013-1-15,40.8,19.2,0.5,18.3,6.3,-27.9,88,61,24,31.89,25.13,8,4,8,0.00
2013-1-16,40.8,29.1,12.6,36.2,19.3,-10.7,96,70,24,31.89,27.40,15,5,15,0.17
2013-1-17,40.8,11.1,1.9,14.4,1.5,-19.9,86,66,24,31.88,25.00,13,4,117,0.21
2013-1-18,45.9,25.8,12.0,36.2,17.4,-0.4,96,71,24,31.89,26.12,16,5,16,0.19
2013-1-19,40.8,30.3,4.8,36.2,19.6,-14.7,96,67,24,31.89,26.40,43,7,43,0.24
2013-1-20,40.8,5.1,-2.2,36.2,-3.8,-21.7,96,67,24,31.88,27.04,13,5,13,0.50
2013-1-21,40.8,-3.6,-12.1,36.2,-14.1,-37.7,96,61,24,31.88,23.66,17,6,17,0.31
2013-1-22,40.8,1.9,-15.0,36.2,-8.7,-40.8,96,63,24,31.88,26.40,8,3,8,0.24
2013-1-23,40.8,16.6,-6.5,36.2,5.8,-21.4,96,63,40,31.89,26.40,24,6,24,0.05
2013-1-24,40.8,11.5,-10.3,36.2,-0.4,-28.4,96,61,24,31.89,26.40,13,5,13,0.35
2013-1-25,40.8,33.3,7.5,36.2,21.1,-15.2,96,67,24,31.88,26.40,8,4,8,0.02
2013-1-26,40.8,32.1,-0.4,36.2,23.6,-20.4,96,74,40,31.89,26.40,8,3,8,0.14
2013-1-27,55.4,32.0,23.7,52.5,29.7,15.5,99,92,59,31.25,28.79,15,3,15,0.00
2013-1-28,38.8,31.9,28.9,33.3,29.9,25.8,99,93,73,28.89,28.67,14,2,14,0.15
2013-1-29,36.7,33.5,29.5,35.2,31.2,24.1,99,91,80,28.66,28.47,16,6,16,0.01
2013-1-30,29.5,19.2,10.0,24.1,13.8,1.7,86,79,68,28.63,28.50,21,12,21,0.00
2013-1-31,10.4,5.2,-5.4,4.8,-2.3,-12.1,85,71,58,29.13,28.63,18,7,18,0.00
2013-2-1,7.0,-5.2,-14.4,-3.6,-13.9,-21.1,81,66,43,29.24,29.03,25,3,10,0.00
2013-2-2,21.6,5.0,-3.6,1.8,-3.1,-26.8,83,70,39,29.11,28.92,107,2,107,0.00
2013-2-3,57.6,11.4,4.5,51.4,2.7,-19.0,88,69,29,28.98,28.89,44,4,44,0.00
2013-2-4,21.2,7.6,-5.3,5.6,-1.7,-10.6,84,67,38,29.00,28.81,7,2,7,0.02
2013-2-5,28.4,14.4,-7.6,22.4,9.2,-11.6,94,80,54,29.04,28.61,16,5,16,0.00
2013-2-6,24.6,9.5,-12.3,21.6,5.5,-16.7,90,84,72,29.10,28.95,12,3,12,0.00
2013-2-7,27.5,25.0,23.2,23.9,22.2,19.3,97,89,83,29.19,28.98,13,5,13,0.00
2013-2-8,31.8,14.0,-2.2,20.2,6.4,-5.4,89,73,43,29.34,29.19,10,2,10,0.00
2013-2-9,28.2,21.8,1.6,23.8,18.1,-1.9,91,86,80,29.26,28.95,20,8,20,0.00
2013-2-10,35.1,30.3,25.2,34.6,28.7,22.0,99,93,86,28.96,28.23,15,6,15,0.53
2013-2-11,34.2,28.3,21.2,32.6,24.5,15.7,99,86,72,28.95,28.23,17,6,17,0.02
2013-2-12,41.0,22.2,11.5,24.0,16.3,8.7,94,79,50,28.98,28.75,12,4,12,0.01
2013-2-13,37.9,27.0,14.7,30.2,22.8,13.3,98,85,62,28.75,28.54,4,2,4,0.00
2013-2-14,37.0,26.9,10.6,30.4,20.2,1.0,99,77,55,29.07,28.54,20,5,20,0.01
2013-2-15,25.0,10.9,-2.9,5.9,0.8,-7.9,86,64,40,29.19,29.07,13,4,13,0.00
2013-2-16,25.9,5.2,-13.5,6.8,-3.8,-18.4,85,68,34,29.16,29.10,8,2,8,0.00
2013-2-17,32.0,8.4,-17.3,14.5,-1.2,-22.6,82,66,49,29.11,28.72,21,8,21,0.00
2013-2-18,39.6,26.4,15.8,30.5,20.6,10.7,91,79,64,28.73,28.47,15,7,15,0.00
2013-2-19,15.8,7.5,1.8,11.0,-3.1,-7.8,81,62,43,29.22,28.61,23,11,23,0.00
2013-2-20,28.4,10.1,-2.2,8.4,0.6,-8.4,81,66,40,29.37,29.22,13,5,13,0.00
2013-2-21,27.0,11.6,-8.0,13.4,2.8,-12.0,86,69,43,29.42,29.07,8,2,8,0.05
2013-2-22,35.6,25.5,19.9,25.9,21.6,-5.6,93,85,64,29.07,28.78,10,2,10,0.12
2013-2-23,35.4,25.4,20.3,24.5,21.1,17.3,94,84,63,28.90,28.77,8,4,8,0.06
2013-2-24,24.8,23.9,23.0,21.2,20.3,19.4,87,86,85,28.96,28.90,6,2,6,0.00
2013-3-2,19.8,19.3,18.9,7.0,6.5,6.1,58,57,56,29.18,29.16,4,3,4,0.14
2013-3-3,39.0,21.6,1.8,13.3,3.4,-3.5,86,49,16,29.12,29.01,7,2,7,0.00
2013-3-4,34.0,22.0,7.2,19.3,10.5,1.8,83,61,46,29.04,28.31,18,6,18,0.02
2013-3-5,29.5,25.9,21.9,25.0,22.0,18.1,92,85,80,29.18,28.99,14,6,14,0.00
2013-3-6,37.4,22.4,0.5,19.9,13.5,-3.3,87,70,40,29.32,29.17,14,6,14,0.05
2013-3-7,42.3,16.3,-6.0,16.4,6.2,-10.2,86,67,30,29.36,29.28,8,2,8,0.00
2013-3-8,43.5,33.9,10.8,27.7,23.7,8.4,91,67,52,29.32,29.12,16,8,16,0.00
2013-3-9,35.6,33.2,24.3,35.2,30.2,4.4,99,89,42,29.17,28.70,20,7,20,0.21
2013-3-10,37.4,33.9,29.1,33.2,28.5,-17.9,99,81,60,29.15,28.72,21,6,21,0.34
2013-3-11,34.5,28.5,24.6,29.2,24.8,19.9,99,86,71,28.78,28.64,20,6,20,0.06
2013-3-12,37.8,25.3,11.7,21.7,15.8,8.9,92,70,35,29.07,28.74,20,7,20,0.00
2013-3-13,40.5,23.0,12.9,13.9,6.2,1.3,77,52,21,29.27,29.07,16,6,16,0.00
2013-3-14,41.2,22.8,6.8,28.2,17.1,-22.2,92,79,23,29.24,28.98,13,3,97,0.01
2013-3-15,45.3,29.3,17.6,30.5,24.5,15.4,97,84,50,28.98,28.81,14,3,14,0.09
2013-3-16,35.4,22.9,9.9,23.5,12.6,0.2,96,67,38,29.15,28.83,13,5,13,0.04
2013-3-17,34.2,14.6,-4.5,12.2,3.2,-9.6,84,62,33,29.21,28.92,16,5,16,0.00
2013-3-18,31.8,21.5,14.5,29.4,17.5,9.9,95,85,72,28.93,28.52,20,11,20,0.00
2013-3-19,32.4,17.3,7.5,10.5,5.0,-2.3,83,60,33,29.03,28.64,23,8,23,0.06
2013-3-20,24.4,10.0,-6.2,4.9,-2.8,-11.0,80,57,37,29.06,29.02,17,6,17,0.00
2013-3-21,34.2,10.1,-11.4,14.3,-0.9,-16.1,84,64,33,29.06,28.98,10,3,10,0.00
2013-3-22,45.1,18.4,-3.8,19.0,6.4,-7.9,87,64,29,29.04,28.97,6,2,6,0.00
2013-3-23,47.7,27.3,7.2,23.9,16.2,3.7,91,66,35,29.11,29.01,12,3,12,0.00
2013-3-24,37.8,29.4,23.2,24.5,21.4,16.8,84,72,51,29.06,28.89,16,6,16,0.00
2013-3-25,44.1,26.5,7.7,24.1,17.4,5.4,92,70,43,29.14,28.94,15,5,15,0.00
2013-3-26,45.9,31.5,18.5,25.9,20.7,14.9,90,66,38,29.23,29.14,8,2,8,0.00
2013-3-27,50.4,35.4,19.8,25.3,19.8,13.8,84,57,25,29.28,29.23,9,2,9,0.00
2013-3-28,52.3,30.4,9.1,22.9,16.3,6.6,91,62,21,29.31,29.24,6,2,6,0.00
2013-3-29,53.8,32.8,13.1,28.0,19.9,11.0,92,65,26,29.28,29.09,11,3,11,0.00
2013-3-30,43.3,37.2,26.8,40.1,33.1,25.9,99,86,64,29.09,28.78,12,2,12,0.63
2013-3-31,44.2,33.0,25.3,33.7,22.7,12.2,99,70,31,28.96,28.70,24,6,24,0.01
2013-4-1,39.2,27.4,18.1,17.0,12.4,8.2,73,54,31,29.15,28.96,15,6,15,0.00
2013-4-2,43.2,27.6,12.4,17.2,13.1,6.5,80,57,27,29.29,29.14,12,4,12,0.00
2013-4-3,49.5,29.3,8.6,24.9,14.9,5.8,90,60,25,29.39,29.08,18,4,18,0.00
2013-4-4,57.2,41.8,31.5,34.0,26.3,19.9,73,56,29,29.09,28.96,15,5,15,0.00
2013-4-5,45.9,33.5,18.1,31.3,20.5,13.9,96,62,29,29.22,28.98,12,3,12,0.00
2013-4-6,48.7,37.2,32.4,36.7,30.6,24.0,98,79,48,28.98,28.48,22,10,22,0.48
2013-4-7,49.5,38.1,34.0,34.2,32.2,29.8,91,80,53,28.92,28.66,10,3,10,0.01
2013-4-8,45.0,37.6,34.3,38.7,35.1,31.7,98,91,75,29.00,28.70,12,2,12,0.51
2013-4-9,41.5,36.9,32.9,36.4,32.7,23.1,99,86,58,29.11,28.95,20,6,20,0.24
2013-4-10,44.6,35.9,27.5,28.7,25.4,19.3,98,68,49,29.15,28.90,13,3,13,0.13
2013-4-11,38.5,34.1,29.3,32.3,26.8,16.8,96,76,45,28.91,28.66,17,6,17,0.21
2013-4-12,45.0,32.9,27.1,31.0,28.0,26.5,98,83,57,28.76,28.60,8,5,8,0.12
2013-4-13,42.3,30.9,21.7,28.1,23.5,18.5,92,75,54,28.95,28.75,13,4,13,0.01
2013-4-14,34.7,28.9,19.6,33.7,26.9,17.8,98,93,74,28.95,28.55,20,4,20,1.04
2013-4-15,42.4,36.8,31.1,34.3,30.4,27.6,99,78,59,28.90,28.56,21,7,21,0.04
2013-4-16,52.5,38.5,28.4,30.7,28.3,26.0,92,69,38,29.29,28.89,10,4,10,0.00
2013-4-17,43.9,36.0,28.2,34.2,29.3,25.7,98,77,60,29.30,28.84,15,5,15,0.11
2013-4-18,38.3,34.7,31.1,35.1,33.7,30.7,99,96,85,28.87,28.29,15,7,15,0.30
2013-4-19,37.4,31.3,25.7,30.7,25.2,19.8,99,79,55,28.92,28.27,29,8,29,0.18
2013-4-20,46.4,32.8,20.3,19.8,12.6,1.7,85,48,16,31.00,28.91,12,4,12,0.00
2013-4-21,43.2,34.9,28.6,42.6,30.0,16.7,99,83,56,29.39,29.12,32,13,32,0.26
2013-4-22,44.4,38.5,32.4,43.8,37.0,31.1,99,94,88,29.22,29.03,21,7,21,0.58
2013-4-23,45.3,36.0,31.1,32.1,27.5,20.5,99,74,40,29.10,29.00,24,8,24,0.13
2013-4-24,48.9,38.0,25.5,34.1,25.5,20.1,96,63,34,29.06,28.91,26,9,26,0.11
2013-4-25,48.7,38.3,32.2,33.0,30.3,26.1,97,75,44,29.23,28.98,17,7,17,0.01
2013-4-26,70.5,53.0,37.0,44.9,36.4,27.1,88,56,33,29.20,29.05,28,11,28,0.05
2013-4-27,71.8,55.5,36.1,49.5,43.9,35.1,99,68,38,29.16,28.98,20,5,20,0.00
2013-4-28,74.1,56.4,42.1,55.0,43.4,39.6,93,65,34,28.99,28.75,23,7,23,0.14
2013-4-29,77.7,57.3,47.7,56.3,52.0,22.5,99,84,42,28.84,28.67,15,4,15,0.65
2013-4-30,78.1,64.5,53.4,58.6,49.6,34.5,93,63,30,28.97,28.54,32,11,32,0.31
2013-5-1,60.1,43.7,33.3,45.5,37.6,31.6,96,81,36,29.47,28.96,22,10,22,0.31
2013-5-2,34.5,32.3,30.4,33.1,31.4,27.9,99,97,91,29.50,29.39,20,9,20,0.24
2013-5-3,38.3,32.9,29.7,32.8,30.7,28.3,97,92,81,29.40,29.14,18,7,18,0.45
2013-5-4,58.8,41.5,33.3,45.1,37.5,2.4,98,87,56,29.17,29.02,13,6,13,0.21
2013-5-5,70.3,51.7,34.9,47.8,41.1,18.9,96,70,42,29.18,28.98,14,6,14,0.00
2013-5-6,81.9,59.8,38.5,48.4,40.8,22.5,94,57,18,29.14,29.03,9,3,9,0.00
2013-5-7,86.7,64.7,43.9,49.7,42.1,15.8,90,51,16,29.29,28.99,9,3,9,0.00
2013-5-8,86.2,66.3,45.0,51.5,45.7,37.8,92,53,20,29.06,28.97,14,3,14,0.00
2013-5-9,65.1,54.1,41.4,51.6,47.0,35.9,98,78,54,29.10,28.98,24,8,24,0.56
2013-5-10,71.2,52.1,36.5,45.3,30.0,15.1,84,49,12,29.12,28.92,21,6,21,0.00
2013-5-11,53.8,46.1,39.6,41.7,29.8,22.5,83,54,35,29.13,28.87,32,18,32,0.56
2013-5-12,57.0,44.3,32.7,27.5,19.5,5.1,68,41,13,29.20,29.10,26,10,26,0.00
2013-5-13,61.2,49.2,31.6,43.8,29.6,12.8,65,48,24,29.18,28.81,25,10,25,0.00
2013-5-14,88.5,77.4,63.5,53.9,46.4,26.4,68,36,14,28.82,28.49,26,9,26,0.02
2013-5-15,80.8,68.1,56.7,48.4,44.8,37.5,67,44,23,28.93,28.63,23,9,23,0.00
2013-5-16,88.0,69.9,50.0,51.8,39.9,25.6,88,41,11,28.99,28.86,16,6,16,0.00
2013-5-17,65.8,56.8,53.1,54.1,47.2,31.8,95,72,28,29.09,28.99,22,11,22,0.07
2013-5-18,78.3,62.1,52.7,62.3,55.9,49.6,96,81,56,29.08,28.89,20,7,20,0.15
2013-5-19,83.3,68.2,60.8,64.1,61.3,57.0,99,80,48,28.91,28.65,45,9,45,1.44
2013-5-20,76.8,66.8,61.0,62.7,58.3,52.6,99,75,51,28.72,28.59,34,12,34,1.03
2013-5-21,72.5,62.6,55.8,63.0,58.3,52.4,99,86,67,28.73,28.58,21,5,21,1.00
2013-5-22,60.6,53.5,49.5,55.1,50.0,46.8,96,88,72,28.97,28.72,20,8,20,0.43
2013-5-23,65.3,53.0,41.4,47.9,33.6,23.0,86,53,22,29.37,28.97,23,10,23,0.01
2013-5-24,68.2,54.1,35.8,50.2,36.4,31.4,88,55,27,29.47,29.28,15,6,15,0.00
2013-5-25,64.8,57.2,51.4,48.9,44.5,36.6,76,63,37,29.36,29.28,23,8,23,0.00
2013-5-26,65.5,57.4,45.3,49.7,41.2,18.0,81,56,33,29.32,29.15,22,10,22,0.00
2013-5-27,63.0,57.6,52.2,53.8,48.2,41.3,96,72,57,29.15,28.91,26,9,26,0.07
2013-5-28,59.0,55.1,51.8,57.4,53.8,50.7,99,95,88,28.91,28.75,11,5,11,0.02
2013-5-29,79.2,63.3,55.9,68.8,58.0,11.6,99,85,16,28.90,28.76,46,6,46,1.11
2013-5-30,76.1,69.0,62.8,66.8,63.3,59.0,92,83,64,28.81,28.58,30,15,30,0.26
2013-5-31,77.7,66.8,57.9,64.0,60.2,53.9,97,81,52,28.69,28.60,42,15,43,1.25
2013-6-1,77.2,56.0,43.7,60.1,48.2,39.0,92,76,50,29.09,28.67,10,4,15,0.28
2013-6-2,69.3,57.7,47.3,49.4,44.4,39.0,96,64,34,29.10,29.03,8,2,14,0.00
2013-6-3,77.0,64.9,55.2,58.5,42.8,39.6,95,47,29,29.13,28.69,14,2,18,0.43
2013-6-4,59.5,56.3,53.2,53.8,51.5,48.3,93,84,72,29.20,29.12,21,8,21,0.08
2013-6-5,55.8,53.8,51.6,55.2,52.4,50.8,99,95,88,29.16,28.99,21,6,36,0.40
2013-6-6,55.9,53.2,50.9,53.1,51.3,50.3,99,93,85,29.06,28.98,9,4,9,0.01
2013-6-7,77.4,61.5,51.8,52.8,49.7,40.7,99,69,35,29.07,28.96,8,3,8,0.00
2013-6-8,72.7,62.5,53.1,58.0,54.1,51.0,97,75,57,29.00,28.95,16,6,16,0.00
2013-6-9,69.4,61.5,54.5,65.0,56.6,49.1,92,84,69,29.00,28.85,20,8,20,0.50
2013-6-10,86.4,70.2,58.5,63.9,61.2,58.2,99,76,44,28.89,28.83,110,3,110,0.00
2013-6-11,82.0,70.2,57.2,66.7,62.8,56.9,99,79,53,28.93,28.82,15,3,15,0.00
2013-6-12,76.1,67.9,63.7,66.3,63.4,58.1,99,86,62,28.96,28.79,44,6,44,0.25
2013-6-13,82.9,70.0,55.8,61.7,52.7,46.6,88,57,30,29.13,28.89,18,6,18,0.00
2013-6-14,77.7,66.9,53.2,62.7,55.3,18.0,93,69,42,29.18,28.80,18,8,18,0.19
2013-6-15,78.1,69.1,61.0,69.6,64.4,60.4,98,86,69,28.96,28.85,26,6,26,0.41
2013-6-16,91.0,74.3,57.6,65.7,55.2,47.3,99,56,25,28.94,28.87,16,4,16,0.01
2013-6-17,87.1,71.7,56.7,61.2,56.3,53.0,95,62,35,29.06,28.88,18,6,18,0.00
2013-6-18,80.2,66.6,57.0,55.7,48.6,29.0,87,57,24,29.16,28.97,13,6,13,0.00
2013-6-19,81.5,69.3,54.7,65.9,56.6,48.6,84,65,46,29.16,29.03,15,8,15,0.00
2013-6-20,84.9,73.4,64.0,69.7,63.3,58.3,93,72,51,29.12,28.99,24,9,24,0.04
2013-6-21,83.8,72.2,64.4,68.6,65.3,62.0,99,80,55,29.15,28.77,35,9,35,2.08
2013-6-22,81.5,72.1,54.9,70.6,67.2,48.8,99,86,62,29.08,28.90,98,5,98,0.17
2013-6-23,88.7,76.2,68.4,69.3,66.5,64.0,92,73,47,28.94,28.80,32,13,32,0.37
2013-6-24,82.0,74.4,64.9,71.0,67.8,63.6,99,81,61,28.97,28.86,25,6,25,0.00
2013-6-25,86.0,76.1,65.7,73.8,68.1,63.7,99,78,51,28.92,28.79,17,6,17,0.00
2013-6-26,87.3,75.6,69.1,75.2,71.1,65.1,99,87,62,28.82,28.74,23,5,23,0.30
2013-6-27,87.6,77.5,65.8,71.7,64.3,54.8,99,68,36,28.85,28.76,36,8,36,0.38
2013-6-28,82.0,70.0,62.4,67.1,61.3,57.5,85,75,52,28.83,28.72,24,8,24,0.13
2013-6-29,78.1,66.3,59.4,62.1,56.5,47.6,90,72,46,29.00,28.77,15,7,15,0.02
2013-6-30,88.3,70.9,52.0,56.2,49.2,42.4,87,52,22,29.14,29.00,15,4,15,0.05
2013-7-1,89.8,72.6,55.9,57.6,53.1,48.8,84,54,27,29.22,29.13,12,3,12,0.00
2013-7-2,89.6,72.6,54.7,58.7,53.4,47.4,91,55,24,29.19,29.09,14,4,14,0.00
2013-7-3,85.8,71.9,55.2,61.5,56.8,49.3,91,62,32,29.13,29.02,15,7,15,0.00
2013-7-4,85.3,75.3,64.9,65.9,61.6,58.1,85,64,42,29.05,28.96,21,11,21,0.00
2013-7-5,86.5,78.1,69.1,64.3,61.2,58.6,78,58,41,29.02,28.92,24,13,24,0.02
2013-7-6,88.5,79.7,71.8,72.5,66.0,61.3,78,64,47,28.98,28.91,21,12,21,0.00
2013-7-7,89.1,80.4,71.6,79.6,70.5,66.3,99,72,55,28.93,28.88,18,8,18,0.11
2013-7-8,95.0,79.6,70.5,73.8,70.7,68.4,98,77,44,29.02,28.89,10,4,10,0.01
2013-7-9,90.9,77.6,69.1,74.6,70.8,63.7,99,81,49,29.02,28.82,21,6,21,0.28
2013-7-10,85.1,73.1,64.4,69.5,57.9,51.6,87,61,34,29.06,28.88,24,9,24,0.00
2013-7-11,89.4,75.2,59.5,62.8,58.2,45.5,95,60,26,29.16,29.06,20,5,20,0.00
2013-7-12,84.4,75.5,66.7,66.3,61.6,59.0,80,63,43,29.13,29.03,25,14,25,0.00
2013-7-13,80.8,74.2,67.5,66.4,62.9,59.8,86,68,53,29.15,29.03,26,13,26,0.06
2013-7-14,87.1,78.2,68.7,69.7,65.4,61.7,89,66,48,29.25,29.14,18,9,18,0.00
2013-7-15,90.0,78.3,65.3,74.9,67.1,63.0,95,72,44,29.30,29.21,20,5,20,0.00
2013-7-16,102.6,87.6,76.1,74.7,72.1,68.8,89,63,35,29.26,29.20,15,5,15,0.00
2013-7-17,102.7,88.6,74.8,75.2,71.1,66.2,92,60,34,29.29,29.16,13,3,13,0.00
2013-7-18,96.4,86.8,75.9,74.4,70.8,68.2,85,61,43,29.16,28.81,24,9,24,0.00
2013-7-19,92.3,82.5,69.6,75.1,66.0,54.5,85,59,36,28.90,28.74,23,10,23,0.11
2013-7-20,86.2,74.7,64.2,62.8,57.0,28.4,84,57,34,29.12,28.87,15,5,15,0.00
2013-7-21,79.0,67.2,59.4,66.4,59.2,46.6,95,76,53,29.04,28.90,20,8,20,0.22
2013-7-22,94.5,73.1,63.9,76.9,66.1,56.8,98,80,50,28.91,28.68,27,11,27,0.14
2013-7-23,80.4,67.3,57.7,57.4,52.4,47.9,90,62,33,29.06,28.84,15,6,15,0.00
2013-7-24,78.1,65.9,52.0,58.6,53.7,49.2,97,68,38,29.13,29.02,10,4,10,0.00
2013-7-25,88.9,73.3,61.3,67.9,61.6,54.8,91,68,42,29.04,28.94,17,7,17,0.04
2013-7-26,76.5,65.8,22.1,66.9,58.2,20.9,98,78,49,29.06,28.91,24,8,24,0.27
2013-7-27,58.5,53.2,47.3,51.6,47.9,45.5,95,83,64,29.06,28.90,21,9,21,0.11
2013-7-28,72.3,59.0,48.7,56.0,51.7,47.1,97,78,52,29.09,28.93,16,7,16,0.02
2013-7-29,84.0,67.4,51.4,61.1,55.1,48.5,99,68,35,29.18,29.09,12,4,12,0.00
2013-7-30,79.5,69.4,62.2,64.9,61.2,36.1,88,76,63,29.18,29.04,13,5,13,0.00
2013-7-31,83.7,71.6,63.3,66.4,61.3,53.8,99,73,39,29.10,28.98,21,6,21,0.00
2013-8-1,87.3,71.4,54.9,60.3,53.7,46.8,88,57,29,29.05,28.90,20,5,20,0.00
2013-8-2,81.5,70.7,56.3,60.4,54.9,47.9,98,61,33,29.05,28.87,16,5,16,0.00
2013-8-3,82.8,68.7,53.2,57.5,51.6,45.0,97,59,30,29.22,29.05,16,5,16,0.00
2013-8-4,82.4,66.1,50.5,58.4,53.4,48.2,99,67,37,29.29,29.10,17,6,17,0.00
2013-8-5,74.1,66.6,59.5,67.0,61.5,53.3,98,84,74,29.10,28.85,25,8,26,0.11
2013-8-6,89.1,73.1,61.5,69.5,62.3,55.1,99,72,34,28.88,28.73,47,6,47,0.38
2013-8-7,82.8,68.9,58.3,65.7,56.6,47.9,99,69,32,29.06,28.79,16,6,16,0.01
2013-8-8,88.9,69.3,51.1,59.2,54.0,45.0,99,64,26,29.09,29.02,12,3,12,0.00
2013-8-9,82.8,69.6,58.3,60.9,54.3,47.9,97,62,33,29.14,29.01,20,6,20,0.00
2013-8-10,86.0,70.2,58.8,57.5,53.8,48.8,84,59,31,29.21,29.13,8,3,8,0.00
2013-8-11,86.0,68.6,55.8,63.7,58.8,53.1,93,74,41,29.15,29.03,11,3,11,0.00
2013-8-12,82.4,70.4,57.0,68.0,58.4,51.6,99,69,36,29.11,29.00,20,5,20,0.13
2013-8-13,77.7,64.1,48.7,54.2,49.0,43.1,97,62,31,29.22,29.11,15,4,15,0.00
2013-8-14,82.8,65.9,50.0,54.8,49.2,41.9,91,60,26,29.25,29.13,15,4,15,0.00
2013-8-15,89.6,71.2,55.9,58.4,52.0,42.4,88,57,20,29.18,29.10,10,2,10,0.00
2013-8-16,92.1,73.5,55.8,59.1,55.6,32.1,89,57,26,29.35,29.16,9,2,9,0.00
2013-8-17,86.7,70.5,53.2,60.7,55.4,50.6,96,63,33,29.27,29.16,21,5,21,0.00
2013-8-18,82.9,71.7,54.7,61.6,57.2,51.0,94,63,37,29.22,29.08,24,7,24,0.00
2013-8-19,89.6,74.1,63.9,67.8,62.8,57.4,83,69,45,29.09,28.98,20,8,20,0.00
2013-8-20,88.3,77.9,68.7,73.0,68.1,63.3,88,73,53,29.00,28.93,28,10,28,0.00
2013-8-21,96.3,78.0,68.2,74.4,69.9,63.5,99,78,47,29.05,28.90,31,5,31,2.31
2013-8-22,93.4,75.8,63.9,66.3,57.4,47.7,99,58,22,29.17,29.03,10,3,10,0.01
2013-8-23,89.1,71.6,54.5,68.2,59.8,50.8,95,69,41,29.21,29.11,17,5,17,0.00
2013-8-24,85.6,74.6,63.9,72.3,65.9,55.5,98,75,58,29.22,29.05,24,7,24,0.19
2013-8-25,95.7,84.3,76.8,75.2,72.6,70.2,83,69,50,29.10,29.00,24,5,24,0.00
2013-8-26,104.7,84.9,77.0,78.3,74.1,71.1,90,72,40,29.09,28.90,20,5,20,0.00
2013-8-27,101.7,86.5,74.3,78.9,75.1,71.5,95,71,45,28.94,28.84,13,4,13,0.00
2013-8-28,95.0,79.6,69.4,73.6,71.0,68.6,99,78,46,29.07,28.94,14,3,14,0.00
2013-8-29,89.8,80.8,72.5,77.8,73.5,69.3,95,79,60,29.08,28.91,15,9,15,0.00
2013-8-30,90.5,80.3,67.1,75.7,68.6,61.8,94,70,41,28.95,28.84,17,6,17,0.00
2013-8-31,88.0,74.2,59.5,70.5,65.1,59.3,99,76,50,28.95,28.78,13,4,13,0.00
2013-9-1,82.8,73.0,63.1,69.9,63.0,55.4,94,72,47,28.97,28.76,17,6,17,0.00
2013-9-2,76.5,62.7,52.0,65.0,51.8,48.7,93,70,40,29.09,28.86,14,2,14,0.00
2013-9-3,81.7,63.7,46.9,57.3,53.1,46.7,99,73,38,29.13,29.02,9,0,9,0.15
2013-9-4,88.0,70.4,57.6,66.2,58.8,52.5,92,69,41,29.20,28.87,10,2,10,0.00
2013-9-5,88.2,66.5,50.0,61.9,55.1,48.9,99,71,29,29.30,29.18,12,3,12,0.00
2013-9-6,88.9,74.5,61.2,69.4,63.5,55.6,95,71,44,29.18,28.95,24,9,24,0.00
2013-9-7,97.5,81.1,67.1,70.0,66.4,60.9,87,64,35,29.08,28.90,20,4,20,0.00
2013-9-8,78.6,68.6,57.4,65.5,57.4,51.0,91,69,45,29.13,28.96,18,6,18,0.01
2013-9-9,88.3,75.7,66.4,75.4,68.9,64.6,96,81,57,28.96,28.69,24,7,24,0.00
2013-9-10,88.9,76.5,70.3,72.3,68.0,63.6,98,77,46,29.00,28.76,13,2,13,0.00
2013-9-11,89.1,74.2,63.3,64.8,58.6,48.0,91,62,29,29.06,28.99,20,3,20,0.00
2013-9-12,73.2,62.0,50.7,56.7,50.6,44.9,95,69,39,29.25,29.02,20,4,20,0.00
2013-9-13,77.0,57.9,42.3,60.2,44.2,39.2,99,66,27,29.31,29.08,8,1,8,0.00
2013-9-14,74.3,58.2,41.5,57.6,47.4,40.0,99,72,39,29.14,28.96,20,1,20,0.38
2013-9-15,69.3,57.9,43.7,57.9,52.8,41.2,99,84,62,29.35,28.95,17,4,17,0.31
2013-9-16,72.5,53.3,37.9,46.9,41.4,37.7,99,69,29,29.46,29.31,16,2,16,0.00
2013-9-17,66.6,57.0,42.3,58.4,49.8,41.4,99,79,50,29.34,29.04,25,5,25,0.04
2013-9-18,73.0,65.8,58.5,68.5,64.0,58.2,99,94,80,29.04,28.81,20,7,20,0.48
2013-9-19,79.7,70.8,66.6,71.6,68.3,65.2,99,92,71,28.82,28.73,22,5,22,0.33
2013-9-20,69.8,62.0,52.3,65.4,56.7,48.3,96,84,59,28.91,28.75,18,6,18,0.19
2013-9-21,67.5,55.0,45.0,49.3,45.4,41.2,97,73,44,29.00,28.91,18,4,18,0.00
2013-9-22,67.8,54.1,39.7,51.8,45.8,39.5,99,76,50,29.09,28.97,20,4,20,0.02
2013-9-23,71.1,59.2,48.7,56.0,50.8,45.2,94,75,50,29.09,28.99,22,5,22,0.00
2013-9-24,77.7,60.7,45.7,56.4,51.4,45.4,99,75,41,29.07,28.96,15,2,15,0.00
2013-9-25,74.5,60.5,46.9,56.7,52.0,46.7,99,76,46,29.06,28.95,13,4,13,0.01
2013-9-26,74.8,62.1,51.1,61.3,55.1,49.8,99,79,59,29.06,28.98,21,11,21,0.00
2013-9-27,79.5,68.7,58.1,64.1,57.6,51.6,82,68,52,29.07,28.92,30,15,30,0.00
2013-9-28,73.0,62.0,50.9,63.7,55.9,49.1,99,81,60,28.99,28.73,44,15,44,2.65
2013-9-29,73.4,59.6,46.8,53.4,48.9,45.1,99,71,38,29.03,28.91,20,9,20,0.01
2013-9-30,74.3,64.4,57.2,57.3,50.7,46.1,77,62,38,28.91,28.72,37,17,37,0.13
2013-10-1,82.2,67.5,50.5,58.0,47.4,28.6,77,53,16,29.00,28.68,20,8,20,0.00
2013-10-2,76.1,59.9,40.5,55.5,46.0,38.9,98,64,27,29.12,28.92,22,5,22,0.47
2013-10-3,63.5,57.6,52.7,58.7,55.8,52.4,99,94,79,29.00,28.86,18,6,18,1.72
2013-10-4,59.4,57.3,55.2,58.2,55.8,53.9,99,95,90,29.04,28.93,21,8,21,0.05
2013-10-5,69.4,58.3,51.3,63.0,57.9,50.8,99,99,94,29.08,28.72,27,6,27,1.32
2013-10-6,69.1,51.7,44.1,63.4,45.7,40.7,99,82,48,29.10,28.70,21,5,21,0.08
2013-10-7,68.7,50.6,20.5,50.1,41.3,20.2,99,76,31,29.06,28.81,52,7,52,0.00
2013-10-8,74.3,58.8,41.0,55.5,46.1,39.7,98,67,35,29.06,28.95,29,12,29,0.00
2013-10-9,74.1,63.8,53.2,58.7,51.6,46.4,82,66,44,29.14,29.01,21,10,21,0.00
2013-10-10,71.4,58.4,46.4,55.3,49.3,43.6,92,73,46,29.13,29.00,20,8,20,0.00
2013-10-11,73.2,63.4,52.3,58.2,54.1,48.3,93,73,55,29.01,28.79,38,17,38,2.54
2013-10-12,66.3,57.4,48.2,58.3,47.4,40.6,82,70,53,29.17,28.78,29,10,29,0.01
2013-10-13,65.8,50.2,38.5,43.5,37.9,26.9,97,68,25,29.43,29.17,15,5,15,0.00
2013-10-14,57.9,47.4,34.7,44.6,38.6,33.1,99,74,50,29.46,29.09,26,7,26,0.00
2013-10-15,55.6,50.7,46.6,55.3,49.5,42.9,99,96,72,29.09,28.72,25,11,25,1.12
2013-10-16,48.2,45.4,39.4,47.9,43.0,37.3,99,91,73,28.95,28.76,16,6,16,0.07
2013-10-17,54.0,45.0,35.8,45.8,41.0,35.5,99,87,65,28.92,28.79,9,4,9,0.02
2013-10-18,53.2,44.3,38.7,46.4,38.1,30.0,99,81,45,28.95,28.79,22,7,22,0.30
2013-10-19,51.1,40.8,34.7,39.4,35.9,32.1,99,83,59,28.88,28.71,17,6,17,0.01
2013-10-20,43.0,37.1,31.1,40.9,36.0,29.5,99,96,89,28.82,28.67,18,8,18,0.18
2013-10-21,38.7,35.8,32.9,35.0,27.6,20.5,95,73,50,28.94,28.82,23,11,23,0.06
2013-10-22,42.3,35.3,28.8,31.3,27.7,23.7,92,74,59,29.03,28.92,14,6,14,0.00
2013-10-23,40.5,33.1,27.0,32.0,27.2,23.3,95,79,60,29.07,28.99,20,6,20,0.01
2013-10-24,44.1,36.5,32.0,32.5,28.1,24.3,86,72,49,29.30,29.07,18,7,18,0.00
2013-10-25,61.0,43.7,34.9,39.9,32.8,26.7,86,67,51,29.31,28.76,30,11,30,0.24
2013-10-26,77.0,44.4,35.6,41.5,32.2,28.1,80,63,49,29.08,28.75,26,11,26,0.00
2013-10-27,63.1,43.2,30.7,35.0,30.9,27.9,93,65,32,29.15,28.82,21,8,21,0.00
2013-10-28,47.7,36.4,28.2,31.5,23.7,18.8,84,62,33,29.47,29.15,21,8,21,0.00
2013-10-29,43.5,35.4,26.1,37.4,29.2,20.1,89,78,64,29.45,29.14,13,5,13,0.01
2013-10-30,50.9,45.3,39.0,50.1,44.0,36.7,99,95,86,29.14,28.72,10,4,10,0.22
2013-10-31,51.8,47.5,40.5,50.5,46.0,40.1,99,95,87,28.72,28.37,15,5,15,0.06
2013-11-1,47.1,42.2,37.4,41.6,39.1,34.0,99,89,74,28.83,28.37,17,8,17,0.04
2013-11-2,50.4,38.4,28.6,36.1,32.9,28.3,99,82,48,29.15,28.82,13,4,13,0.00
2013-11-3,49.8,39.7,27.0,36.8,32.6,26.7,99,78,56,29.23,29.02,34,16,34,0.99
2013-11-4,45.5,43.4,36.3,44.9,39.2,34.8,99,86,66,29.18,28.94,31,14,31,0.27
2013-11-5,43.3,36.6,30.7,42.9,34.9,28.5,99,94,84,29.28,28.95,18,4,18,0.37
2013-11-6,42.1,35.2,29.5,33.9,29.1,22.8,99,80,49,29.16,28.92,26,10,26,0.18
2013-11-7,36.9,30.3,24.4,29.3,27.3,24.1,99,89,72,29.24,29.16,10,4,10,0.00
2013-11-8,42.6,33.8,21.9,37.9,29.6,21.7,99,86,65,29.23,28.65,30,12,30,0.14
2013-11-9,44.6,41.2,37.4,41.7,34.5,26.1,93,77,59,29.13,28.64,26,14,26,0.14
2013-11-10,45.5,40.1,35.6,32.7,29.0,25.5,78,65,49,29.32,29.10,23,9,23,0.00
2013-11-11,39.0,26.8,17.4,32.2,14.5,6.3,94,60,38,29.66,29.09,22,12,22,0.02
2013-11-12,30.2,20.1,12.0,14.2,10.4,6.9,81,67,44,29.75,29.49,15,8,15,0.00
2013-11-13,48.9,33.8,18.3,30.5,22.4,12.3,79,64,46,29.49,28.91,30,13,30,0.33
2013-11-14,43.0,37.3,32.9,35.9,30.6,26.9,99,77,67,28.92,28.80,14,6,14,0.00
2013-11-15,57.7,40.8,29.3,38.9,33.8,21.2,99,77,48,28.90,28.76,16,5,16,0.00
2013-11-16,54.0,44.5,40.6,52.4,40.7,35.6,99,86,75,28.76,28.31,26,13,26,0.22
2013-11-17,47.5,40.7,32.0,44.4,37.1,25.6,97,87,77,28.74,28.34,29,10,29,0.21
2013-11-18,32.5,28.2,21.7,26.7,21.1,18.5,89,75,65,29.28,28.74,28,13,28,0.00
2013-11-19,38.5,29.8,16.9,26.9,22.0,15.9,97,74,54,29.32,29.06,30,13,30,0.00
2013-11-20,40.1,36.5,32.5,33.4,27.8,25.1,99,72,56,29.08,29.02,30,17,30,0.06
2013-11-21,35.4,31.6,24.6,31.0,27.2,22.1,92,84,71,29.44,29.08,20,7,20,0.00
2013-11-22,32.5,24.9,11.7,22.5,16.2,0.8,94,70,49,29.55,29.42,27,9,27,0.02
2013-11-23,26.6,12.2,5.2,9.0,2.2,-1.4,82,64,44,29.76,29.51,27,11,27,0.00
2013-11-24,25.7,15.6,1.9,13.4,5.6,-1.8,88,66,44,29.70,29.04,29,13,29,0.01
2013-11-25,68.0,32.2,25.0,28.3,22.7,13.0,77,68,59,29.04,28.91,29,13,29,0.02
2013-11-26,56.3,19.8,10.9,21.0,8.1,1.3,90,60,48,29.32,29.01,29,12,29,0.00
2013-11-27,29.3,18.8,8.8,14.5,9.1,3.1,84,66,48,29.34,29.12,18,8,18,0.00
2013-11-28,30.9,22.6,13.3,14.7,12.3,9.1,84,65,48,29.52,29.10,20,7,20,0.00
2013-11-29,28.4,19.8,6.3,20.8,13.8,3.7,92,78,64,29.56,29.23,24,10,24,0.00
2013-11-30,45.3,32.9,25.7,28.9,25.1,20.5,86,73,51,29.23,29.03,17,6,17,0.00
2013-12-1,41.4,28.7,22.3,28.1,24.4,20.6,99,85,57,29.19,28.97,6,2,6,0.00
2013-12-2,34.5,28.6,19.9,31.8,26.8,19.3,99,93,85,28.97,28.70,15,7,15,0.00
2013-12-3,33.8,32.0,28.8,32.8,30.6,28.0,97,95,87,28.83,28.68,23,9,23,0.18
2013-12-4,34.2,30.6,24.4,32.0,28.4,21.1,98,92,69,28.83,28.44,26,7,26,0.35
2013-12-5,24.6,10.4,1.4,21.6,4.9,-3.6,89,78,64,29.30,28.61,30,15,30,0.00
2013-12-6,10.2,1.0,-8.1,-0.6,-5.6,-16.9,82,74,59,29.59,29.30,15,8,15,0.00
2013-12-7,5.0,-3.8,-11.2,-6.4,-10.5,-15.9,86,73,55,29.70,29.57,13,6,13,0.00
2013-12-8,55.8,5.0,-3.5,55.5,1.2,-8.5,99,84,72,29.58,28.99,11,4,11,0.00
2013-12-9,9.3,2.2,-7.1,6.9,-3.1,-11.9,92,78,60,29.11,28.95,26,9,26,0.00
2013-12-10,9.9,3.1,-5.3,1.7,-2.8,-10.0,88,76,61,29.20,28.80,18,9,18,0.00
2013-12-11,5.7,-3.0,-15.7,0.9,-11.1,-20.8,82,68,50,29.51,29.20,20,8,20,0.00
2013-12-12,17.8,8.2,-3.6,9.9,2.4,-9.6,87,77,58,29.37,29.16,14,4,14,0.00
2013-12-13,16.5,12.8,9.7,10.2,5.8,2.4,83,73,64,29.30,29.15,18,8,18,0.00
2013-12-14,19.9,11.7,5.7,13.4,8.0,0.2,90,85,75,29.30,29.00,18,6,18,0.00
2013-12-15,65.3,-2.7,-15.7,45.1,-10.7,-20.5,81,69,48,29.16,28.94,17,6,17,0.00
2013-12-16,15.3,2.9,-13.0,14.1,-0.9,-17.4,95,84,68,29.15,28.91,16,6,16,0.00
2013-12-17,31.3,21.7,4.8,26.6,16.7,0.1,98,81,67,29.10,28.82,25,9,25,0.02
2013-12-18,49.5,14.0,-2.0,18.6,8.5,-5.4,94,79,55,29.08,28.68,24,5,24,0.00
2013-12-19,23.4,16.5,6.8,15.8,11.4,4.5,95,81,66,29.07,28.78,17,7,17,0.00
2013-12-20,20.1,17.3,14.4,16.8,12.9,9.6,91,83,70,29.04,28.86,13,5,13,0.00
2013-12-21,25.9,21.4,18.9,18.4,16.9,15.6,92,83,71,28.98,28.85,12,5,12,0.00
2013-12-22,28.0,22.3,16.5,23.3,18.9,15.1,95,87,76,29.15,28.89,12,6,12,0.00
2013-12-23,16.5,5.4,-9.6,15.1,1.6,-13.4,94,84,66,29.46,29.15,10,5,10,0.00
2013-12-24,11.5,-1.1,-17.9,8.1,-5.1,-22.4,92,83,75,29.47,29.17,20,7,20,0.00
2013-12-25,17.8,12.6,7.5,16.1,10.1,5.0,93,90,83,29.17,29.04,15,6,15,0.00
2013-12-26,23.2,15.1,6.8,15.4,11.1,5.0,94,84,70,29.19,29.10,12,3,12,0.00
2013-12-27,38.8,19.5,0.5,29.0,16.3,-2.0,99,88,67,29.19,28.90,18,5,18,0.01
2013-12-28,43.7,28.5,16.2,35.6,24.5,15.0,98,86,63,29.00,28.70,24,4,24,0.41
2013-12-29,25.5,3.2,-15.7,22.0,-4.8,-22.6,87,69,50,29.28,28.85,28,11,28,10.15
2013-12-30,1.0,-10.3,-24.2,-7.3,-17.0,-29.6,81,72,50,29.30,29.19,6,2,6,0.00
2013-12-31,1.0,-7.3,-19.5,-6.6,-13.4,-24.5,84,74,58,29.42,29.16,13,3,13,0.00
2014-1-1,6.8,-2.2,-19.1,-4.2,-9.8,-24.1,80,70,56,29.48,29.39,9,4,9,0.00
2014-1-2,10.8,-1.9,-18.2,-3.4,-9.6,-23.2,83,70,48,29.45,29.38,9,3,9,0.00